createdAt,value
2022-12-31T00:05:36.679Z,13.90
2022-12-31T00:20:41.271Z,14.00
2022-12-31T00:35:44.425Z,14.10
2022-12-31T00:50:55.720Z,14.30
2022-12-31T01:05:59.647Z,14.30
2022-12-31T01:21:04.942Z,14.40
2022-12-31T01:36:25.680Z,14.40
2022-12-31T01:51:32.602Z,14.40
2022-12-31T02:06:56.336Z,14.50
2022-12-31T02:22:26.348Z,14.50
2022-12-31T02:37:32.464Z,14.60
2022-12-31T02:52:55.451Z,14.60
2022-12-31T03:07:58.227Z,14.60
2022-12-31T03:23:01.570Z,14.60
2022-12-31T03:38:04.954Z,14.70
2022-12-31T03:53:07.585Z,14.60
2022-12-31T04:08:10.384Z,14.70
2022-12-31T04:23:14.881Z,14.60
2022-12-31T04:38:18.088Z,14.80
2022-12-31T04:53:21.033Z,14.80
2022-12-31T05:08:24.159Z,14.90
2022-12-31T05:23:27.397Z,14.90
2022-12-31T05:38:30.170Z,14.90
2022-12-31T05:53:34.580Z,14.90
2022-12-31T06:08:37.347Z,15.10
2022-12-31T06:23:40.958Z,15.30
2022-12-31T06:38:44.000Z,15.20
2022-12-31T06:53:49.072Z,15.20
2022-12-31T07:09:07.096Z,15.30
2022-12-31T07:24:11.530Z,15.50
2022-12-31T07:39:22.616Z,15.50
2022-12-31T07:54:25.324Z,15.30
2022-12-31T08:10:10.113Z,15.40
2022-12-31T08:25:31.097Z,15.30
2022-12-31T08:40:36.815Z,15.40
2022-12-31T08:55:42.149Z,15.60
2022-12-31T09:11:24.524Z,15.90
2022-12-31T09:26:41.476Z,15.80
2022-12-31T09:41:49.976Z,16.00
2022-12-31T09:57:23.704Z,16.20
2022-12-31T10:12:53.662Z,16.10
2022-12-31T10:28:25.483Z,15.90
2022-12-31T10:43:50.026Z,16.30
2022-12-31T10:59:01.875Z,16.30
2022-12-31T11:14:23.181Z,16.30
2022-12-31T11:29:34.658Z,16.40
2022-12-31T11:44:49.972Z,16.40
2022-12-31T12:00:13.295Z,16.70
2022-12-31T12:15:35.492Z,15.30
2022-12-31T12:30:41.614Z,16.90
2022-12-31T12:45:51.799Z,16.90
2022-12-31T13:01:10.616Z,16.90
2022-12-31T13:16:43.499Z,16.10
2022-12-31T13:31:48.925Z,16.00
2022-12-31T13:46:56.357Z,15.70
2022-12-31T14:02:29.426Z,15.60
2022-12-31T14:18:00.267Z,15.50
2022-12-31T14:33:21.983Z,15.60
2022-12-31T14:48:27.478Z,15.70
2022-12-31T15:03:45.791Z,15.70
2022-12-31T15:18:48.752Z,15.70
2022-12-31T15:34:01.372Z,15.70
2022-12-31T15:49:15.591Z,15.60
2022-12-31T16:04:25.503Z,15.70
2022-12-31T16:19:41.780Z,15.60
2022-12-31T16:34:45.191Z,15.90
2022-12-31T16:50:00.105Z,15.60
2022-12-31T17:05:02.886Z,15.50
2022-12-31T17:20:11.184Z,15.50
2022-12-31T17:35:42.320Z,14.40
2022-12-31T17:50:54.175Z,15.40
2022-12-31T18:05:56.891Z,15.50
2022-12-31T18:21:06.299Z,15.40
2022-12-31T18:36:13.874Z,15.40
2022-12-31T18:51:19.397Z,15.50
2022-12-31T19:06:22.190Z,15.50
2022-12-31T19:21:24.811Z,15.50
2022-12-31T19:36:27.636Z,15.40
2022-12-31T19:51:30.754Z,15.50
2022-12-31T20:06:33.309Z,15.50
2022-12-31T20:21:36.611Z,15.50
2022-12-31T20:36:39.552Z,15.60
2022-12-31T20:51:44.125Z,15.60
2022-12-31T21:06:49.877Z,15.60
2022-12-31T21:21:52.623Z,15.70
2022-12-31T21:36:55.284Z,15.70
2022-12-31T21:52:16.521Z,15.70
2022-12-31T22:07:19.002Z,15.60
2022-12-31T22:22:21.555Z,15.80
2022-12-31T22:37:55.670Z,15.80
2022-12-31T22:52:47.200Z,15.90
2022-12-31T23:07:49.797Z,15.90
2022-12-31T23:23:10.567Z,16.10
2022-12-31T23:38:14.826Z,16.10
2022-12-31T23:53:17.424Z,16.00
